createdAt,value
2019-04-20T00:01:58.249Z,15.25
2019-04-20T00:04:30.955Z,14.30
2019-04-20T00:06:59.148Z,12.18
2019-04-20T00:09:32.725Z,11.40
2019-04-20T00:12:09.013Z,12.05
2019-04-20T00:14:35.447Z,11.38
2019-04-20T00:17:05.215Z,11.20
2019-04-20T00:19:42.212Z,10.75
2019-04-20T00:22:34.386Z,10.43
2019-04-20T00:25:20.608Z,10.43
2019-04-20T00:28:19.482Z,10.30
2019-04-20T00:30:54.310Z,9.13
2019-04-20T00:33:18.620Z,9.38
2019-04-20T00:35:37.988Z,9.08
2019-04-20T00:38:07.899Z,8.83
2019-04-20T00:40:37.696Z,8.93
2019-04-20T00:43:08.632Z,10.32
2019-04-20T00:45:46.864Z,28.95
2019-04-20T00:48:22.587Z,19.57
2019-04-20T00:50:55.285Z,15.10
2019-04-20T00:53:22.665Z,21.33
2019-04-20T00:55:46.334Z,48.80
2019-04-20T00:58:23.628Z,36.70
2019-04-20T01:01:06.921Z,31.62
2019-04-20T01:03:33.880Z,33.42
2019-04-20T01:06:23.126Z,10.53
2019-04-20T01:08:40.223Z,21.23
2019-04-20T01:11:10.298Z,27.75
2019-04-20T01:13:45.941Z,25.17
2019-04-20T01:16:25.485Z,31.17
2019-04-20T01:18:43.782Z,11.65
2019-04-20T01:21:19.855Z,21.55
2019-04-20T01:23:54.640Z,14.63
2019-04-20T01:26:20.593Z,16.12
2019-04-20T01:29:04.181Z,18.02
2019-04-20T01:31:29.573Z,16.62
2019-04-20T01:34:02.267Z,15.20
2019-04-20T01:36:42.974Z,71.28
2019-04-20T01:39:09.419Z,24.47
2019-04-20T01:41:28.595Z,62.73
2019-04-20T01:46:30.098Z,59.80
2019-04-20T01:49:07.976Z,74.70
2019-04-20T01:51:44.318Z,54.20
2019-04-20T01:54:23.514Z,22.85
2019-04-20T01:56:52.045Z,41.58
2019-04-20T01:59:26.259Z,65.40
2019-04-20T02:01:55.751Z,79.05
2019-04-20T02:04:30.152Z,67.67
2019-04-20T02:06:59.571Z,16.57
2019-04-20T02:09:28.040Z,18.60
2019-04-20T02:12:05.013Z,33.08
2019-04-20T02:14:40.054Z,26.82
2019-04-20T02:17:11.710Z,28.30
2019-04-20T02:19:52.240Z,32.58
2019-04-20T02:22:17.291Z,30.23
2019-04-20T02:24:36.977Z,30.65
2019-04-20T02:27:08.174Z,30.12
2019-04-20T02:29:58.163Z,45.05
2019-04-20T02:32:40.267Z,57.70
2019-04-20T02:35:18.510Z,141.82
2019-04-20T02:40:32.862Z,101.82
2019-04-20T02:42:59.799Z,36.65
2019-04-20T02:45:40.835Z,120.97
2019-04-20T02:48:10.013Z,166.62
2019-04-20T02:50:28.651Z,144.80
2019-04-20T02:53:05.231Z,130.10
2019-04-20T02:55:48.327Z,97.00
2019-04-20T02:58:05.269Z,91.50
2019-04-20T03:00:31.113Z,81.78
2019-04-20T03:02:48.687Z,59.48
2019-04-20T03:05:20.673Z,77.85
2019-04-20T03:07:57.514Z,72.78
2019-04-20T03:10:43.607Z,56.90
2019-04-20T03:13:08.534Z,79.82
2019-04-20T03:15:37.925Z,79.15
2019-04-20T03:18:12.020Z,82.82
2019-04-20T03:20:41.791Z,74.65
2019-04-20T03:23:26.118Z,61.42
2019-04-20T03:25:58.401Z,74.70
2019-04-20T03:28:44.120Z,67.47
2019-04-20T03:32:08.448Z,69.65
2019-04-20T03:34:38.385Z,68.97
2019-04-20T03:36:53.316Z,51.75
2019-04-20T03:39:13.832Z,87.95
2019-04-20T03:41:35.177Z,105.27
2019-04-20T03:44:03.154Z,66.77
2019-04-20T03:46:40.720Z,51.42
2019-04-20T03:49:20.265Z,44.80
2019-04-20T03:51:57.403Z,41.37
2019-04-20T03:54:24.749Z,32.73
2019-04-20T03:57:23.502Z,24.82
2019-04-20T04:00:00.429Z,23.12
2019-04-20T04:02:49.392Z,29.42
2019-04-20T04:05:08.936Z,23.80
2019-04-20T04:07:33.469Z,18.17
2019-04-20T04:10:09.810Z,15.43
2019-04-20T04:13:03.082Z,14.95
2019-04-20T04:15:37.052Z,14.30
2019-04-20T04:18:13.530Z,14.03
2019-04-20T04:20:50.057Z,11.48
2019-04-20T04:23:28.670Z,12.37
2019-04-20T04:26:03.591Z,11.30
2019-04-20T04:28:41.164Z,12.25
2019-04-20T04:31:11.901Z,15.23
2019-04-20T04:36:15.370Z,10.10
2019-04-20T04:38:59.848Z,9.53
2019-04-20T04:41:25.086Z,9.60
2019-04-20T04:43:58.825Z,9.58
2019-04-20T04:46:05.850Z,9.28
2019-04-20T04:51:13.633Z,9.13
2019-04-20T04:53:47.930Z,9.05
2019-04-20T04:56:16.079Z,9.98
2019-04-20T04:58:42.499Z,9.25
2019-04-20T05:01:18.413Z,8.95
2019-04-20T05:04:10.525Z,10.48
2019-04-20T05:06:30.015Z,9.35
2019-04-20T05:08:53.316Z,10.00
2019-04-20T05:11:21.626Z,8.63
2019-04-20T05:13:58.312Z,8.60
2019-04-20T05:16:40.947Z,6.67
2019-04-20T05:19:31.169Z,8.00
2019-04-20T05:22:01.096Z,6.65
2019-04-20T05:24:25.529Z,7.28
2019-04-20T05:27:01.725Z,6.55
2019-04-20T05:29:21.489Z,6.50
2019-04-20T05:31:53.351Z,6.55
2019-04-20T05:34:38.672Z,6.53
2019-04-20T05:37:17.745Z,8.00
2019-04-20T05:39:45.778Z,6.37
2019-04-20T05:42:17.705Z,7.53
2019-04-20T05:44:47.352Z,6.92
2019-04-20T05:47:19.187Z,7.53
2019-04-20T05:49:45.292Z,7.47
2019-04-20T05:52:38.667Z,7.17
2019-04-20T05:54:58.246Z,7.45
2019-04-20T06:00:03.577Z,7.20
2019-04-20T06:02:27.669Z,7.08
2019-04-20T06:05:05.677Z,8.05
2019-04-20T06:07:29.694Z,7.45
2019-04-20T06:10:09.360Z,7.70
2019-04-20T06:12:36.296Z,7.35
2019-04-20T06:15:04.515Z,7.55
2019-04-20T06:17:49.241Z,7.00
2019-04-20T06:20:23.449Z,8.68
2019-04-20T06:23:01.700Z,6.58
2019-04-20T06:27:58.086Z,7.62
2019-04-20T06:30:28.474Z,6.47
2019-04-20T06:33:53.384Z,6.97
2019-04-20T06:36:26.174Z,6.20
2019-04-20T06:39:13.382Z,5.58
2019-04-20T06:41:27.315Z,5.60
2019-04-20T06:43:53.969Z,6.12
2019-04-20T06:46:33.397Z,6.35
2019-04-20T06:48:52.405Z,6.22
2019-04-20T06:51:32.418Z,6.33
2019-04-20T06:54:03.235Z,5.55
2019-04-20T06:56:59.914Z,5.12
2019-04-20T06:59:41.785Z,5.62
2019-04-20T07:02:11.973Z,7.65
2019-04-20T07:07:14.646Z,5.25
2019-04-20T07:10:03.609Z,4.20
2019-04-20T07:12:17.146Z,4.00
2019-04-20T07:14:42.728Z,5.87
2019-04-20T07:17:45.569Z,5.10
2019-04-20T07:19:58.824Z,4.80
2019-04-20T07:22:51.048Z,4.67
2019-04-20T07:25:12.784Z,3.60
2019-04-20T07:27:41.491Z,4.55
2019-04-20T07:30:12.099Z,3.60
2019-04-20T07:32:52.165Z,3.87
2019-04-20T07:35:22.081Z,5.20
2019-04-20T07:40:23.200Z,3.27
2019-04-20T07:42:55.358Z,3.60
2019-04-20T07:45:30.757Z,2.83
2019-04-20T07:48:06.138Z,3.47
2019-04-20T07:50:26.541Z,3.30
2019-04-20T07:52:54.429Z,2.83
2019-04-20T07:55:49.635Z,3.30
2019-04-20T07:58:01.405Z,3.22
2019-04-20T08:00:51.892Z,2.50
2019-04-20T08:03:28.384Z,2.85
2019-04-20T08:05:47.044Z,3.37
2019-04-20T08:08:40.294Z,3.15
2019-04-20T08:10:59.617Z,3.55
2019-04-20T08:13:39.000Z,3.92
2019-04-20T08:16:06.914Z,3.12
2019-04-20T08:18:45.853Z,2.77
2019-04-20T08:21:12.881Z,2.60
2019-04-20T08:23:44.591Z,2.30
2019-04-20T08:26:06.657Z,2.58
2019-04-20T08:28:41.777Z,3.10
2019-04-20T08:31:24.581Z,2.60
2019-04-20T08:34:15.240Z,3.27
2019-04-20T08:36:43.331Z,2.65
2019-04-20T08:41:36.998Z,2.20
2019-04-20T08:46:53.550Z,2.60
2019-04-20T08:49:22.103Z,3.10
2019-04-20T08:54:20.647Z,2.95
2019-04-20T08:56:36.014Z,2.75
2019-04-20T08:59:00.327Z,2.40
2019-04-20T09:01:32.694Z,3.62
2019-04-20T09:04:09.788Z,2.70
2019-04-20T09:06:56.484Z,4.42
2019-04-20T09:09:44.534Z,3.60
2019-04-20T09:12:09.050Z,2.83
2019-04-20T09:14:20.959Z,2.80
2019-04-20T09:16:57.040Z,2.80
2019-04-20T09:19:36.732Z,2.62
2019-04-20T09:22:26.715Z,3.55
2019-04-20T09:25:13.394Z,2.67
2019-04-20T09:27:26.991Z,2.95
2019-04-20T09:30:06.206Z,2.87
2019-04-20T09:32:48.895Z,2.80
2019-04-20T09:35:24.862Z,2.90
2019-04-20T09:38:01.651Z,2.65
2019-04-20T09:40:34.954Z,2.42
2019-04-20T09:43:00.205Z,3.00
2019-04-20T09:45:40.977Z,2.95
2019-04-20T09:48:13.736Z,2.60
2019-04-20T09:50:55.579Z,3.05
2019-04-20T09:53:24.772Z,3.25
2019-04-20T09:55:59.222Z,2.83
2019-04-20T09:58:21.285Z,3.92
2019-04-20T10:00:57.972Z,3.58
2019-04-20T10:03:18.464Z,3.30
2019-04-20T10:05:49.649Z,2.70
2019-04-20T10:08:19.744Z,2.90
2019-04-20T10:10:51.176Z,2.70
2019-04-20T10:13:21.595Z,2.90
2019-04-20T10:15:53.441Z,3.00
2019-04-20T10:18:23.726Z,3.52
2019-04-20T10:20:53.928Z,3.10
2019-04-20T10:23:25.294Z,4.12
2019-04-20T10:25:56.427Z,4.95
2019-04-20T10:28:27.682Z,4.17
2019-04-20T10:30:58.937Z,3.33
2019-04-20T10:33:28.954Z,3.45
2019-04-20T10:35:59.419Z,3.70
2019-04-20T10:38:35.923Z,3.35
2019-04-20T10:41:13.898Z,4.58
2019-04-20T10:43:44.864Z,3.10
2019-04-20T10:46:15.071Z,3.50
2019-04-20T10:48:49.169Z,3.40
2019-04-20T10:51:17.755Z,3.72
2019-04-20T10:53:48.626Z,5.12
2019-04-20T10:56:19.055Z,3.52
2019-04-20T10:58:49.650Z,3.33
2019-04-20T11:01:19.910Z,3.75
2019-04-20T11:03:50.363Z,4.70
2019-04-20T11:06:26.872Z,5.25
2019-04-20T11:09:00.411Z,3.27
2019-04-20T11:11:33.600Z,3.25
2019-04-20T11:14:11.113Z,3.42
2019-04-20T11:16:40.296Z,3.70
2019-04-20T11:19:11.531Z,3.85
2019-04-20T11:21:42.313Z,3.25
2019-04-20T11:24:12.356Z,5.40
2019-04-20T11:26:44.772Z,3.72
2019-04-20T11:29:13.927Z,4.10
2019-04-20T11:31:47.748Z,3.75
2019-04-20T11:34:23.492Z,3.40
2019-04-20T11:36:46.891Z,3.00
2019-04-20T11:39:17.029Z,3.08
2019-04-20T11:41:47.662Z,5.28
2019-04-20T11:44:17.895Z,7.22
2019-04-20T11:46:50.693Z,10.10
2019-04-20T11:49:21.600Z,6.10
2019-04-20T11:51:53.424Z,3.42
2019-04-20T11:54:26.471Z,4.50
2019-04-20T11:56:57.425Z,3.30
2019-04-20T11:59:27.458Z,5.10
2019-04-20T12:02:03.921Z,2.77
2019-04-20T12:05:03.593Z,4.47
2019-04-20T12:07:19.277Z,9.63
2019-04-20T12:09:49.797Z,2.87
2019-04-20T12:12:29.984Z,3.37
2019-04-20T12:14:52.580Z,4.80
2019-04-20T12:17:23.687Z,3.83
2019-04-20T12:19:53.651Z,2.90
2019-04-20T12:22:24.128Z,2.92
2019-04-20T12:24:54.156Z,2.90
2019-04-20T12:27:25.464Z,2.92
2019-04-20T12:29:55.354Z,3.62
2019-04-20T12:32:28.247Z,3.87
2019-04-20T12:34:57.992Z,3.30
2019-04-20T12:37:29.089Z,3.20
2019-04-20T12:39:59.115Z,6.17
2019-04-20T12:42:29.000Z,3.42
2019-04-20T12:44:59.671Z,3.80
2019-04-20T12:47:29.911Z,5.67
2019-04-20T12:49:59.867Z,14.58
2019-04-20T12:52:32.345Z,5.42
2019-04-20T12:55:04.613Z,8.20
2019-04-20T12:57:34.429Z,4.67
2019-04-20T13:00:07.685Z,6.33
2019-04-20T13:02:39.243Z,11.50
2019-04-20T13:05:09.562Z,4.40
2019-04-20T13:07:44.850Z,3.40
2019-04-20T13:10:13.683Z,3.33
2019-04-20T13:12:58.507Z,5.37
2019-04-20T13:15:46.561Z,3.52
2019-04-20T13:18:32.997Z,4.30
2019-04-20T13:21:03.247Z,2.92
2019-04-20T13:23:33.237Z,3.27
2019-04-20T13:26:05.762Z,3.47
2019-04-20T13:28:37.847Z,3.35
2019-04-20T13:31:20.011Z,3.95
2019-04-20T13:33:51.593Z,3.20
2019-04-20T13:36:22.038Z,14.83
2019-04-20T13:38:52.328Z,9.95
2019-04-20T13:41:22.293Z,3.77
2019-04-20T13:43:54.846Z,2.83
2019-04-20T13:46:24.958Z,3.80
2019-04-20T13:48:55.206Z,2.70
2019-04-20T13:51:26.538Z,2.72
2019-04-20T13:53:57.577Z,3.08
2019-04-20T13:56:30.078Z,2.85
2019-04-20T13:59:08.323Z,3.85
2019-04-20T14:01:41.156Z,3.77
2019-04-20T14:04:12.839Z,5.65
2019-04-20T14:06:43.546Z,4.03
2019-04-20T14:09:13.510Z,4.37
2019-04-20T14:11:45.407Z,4.15
2019-04-20T14:14:15.506Z,5.05
2019-04-20T14:21:44.245Z,3.27
2019-04-20T14:24:15.081Z,4.08
2019-04-20T14:26:45.806Z,3.47
2019-04-20T14:29:16.977Z,3.77
2019-04-20T14:31:48.074Z,7.42
2019-04-20T14:34:17.951Z,3.55
2019-04-20T14:36:48.869Z,4.20
2019-04-20T14:39:20.382Z,3.62
2019-04-20T14:41:52.071Z,3.30
2019-04-20T14:44:21.949Z,4.30
2019-04-20T14:46:51.862Z,3.60
2019-04-20T14:49:22.986Z,3.83
2019-04-20T14:51:55.824Z,3.70
2019-04-20T14:54:25.620Z,3.15
2019-04-20T14:56:56.518Z,4.33
2019-04-20T14:59:33.931Z,3.60
2019-04-20T15:02:12.574Z,4.67
2019-04-20T15:04:43.237Z,4.90
2019-04-20T15:10:23.232Z,4.03
2019-04-20T15:12:59.270Z,3.27
2019-04-20T15:15:24.736Z,3.98
2019-04-20T15:18:02.218Z,3.33
2019-04-20T15:20:33.739Z,3.52
2019-04-20T15:23:07.546Z,14.33
2019-04-20T15:25:37.538Z,4.17
2019-04-20T15:28:08.280Z,4.40
2019-04-20T15:30:38.395Z,4.45
2019-04-20T15:33:09.216Z,6.25
2019-04-20T15:35:40.153Z,7.85
2019-04-20T15:38:11.211Z,5.70
2019-04-20T15:40:41.468Z,5.03
2019-04-20T15:43:17.060Z,5.10
2019-04-20T15:45:43.479Z,28.65
2019-04-20T15:48:14.388Z,9.68
2019-04-20T15:50:45.664Z,4.65
2019-04-20T15:53:15.749Z,5.00
2019-04-20T15:55:48.479Z,10.65
2019-04-20T15:58:18.477Z,10.15
2019-04-20T16:00:48.393Z,9.15
2019-04-20T16:03:21.035Z,5.87
2019-04-20T16:06:05.500Z,4.75
2019-04-20T16:08:38.761Z,5.67
2019-04-20T16:11:09.218Z,4.72
2019-04-20T16:13:44.018Z,5.40
2019-04-20T16:16:12.157Z,4.72
2019-04-20T16:18:43.268Z,4.95
2019-04-20T16:21:19.647Z,5.78
2019-04-20T16:23:46.464Z,6.25
2019-04-20T16:26:21.790Z,6.50
2019-04-20T16:28:53.368Z,5.85
2019-04-20T16:31:24.512Z,5.15
2019-04-20T16:33:56.879Z,8.78
2019-04-20T16:36:26.245Z,5.92
2019-04-20T16:38:57.375Z,6.08
2019-04-20T16:41:28.465Z,6.10
2019-04-20T16:43:59.499Z,5.95
2019-04-20T16:46:30.131Z,12.63
2019-04-20T16:51:29.345Z,27.58
2019-04-20T16:53:59.576Z,17.67
2019-04-20T16:56:30.750Z,21.55
2019-04-20T16:59:06.146Z,20.97
2019-04-20T17:01:32.279Z,23.32
2019-04-20T17:04:07.864Z,24.85
2019-04-20T17:06:35.990Z,21.02
2019-04-20T17:09:07.119Z,14.25
2019-04-20T17:11:37.047Z,16.67
2019-04-20T17:14:06.932Z,25.68
2019-04-20T17:16:39.587Z,18.48
2019-04-20T17:19:10.013Z,22.15
2019-04-20T17:24:11.224Z,36.08
2019-04-20T17:26:52.942Z,47.70
2019-04-20T17:29:28.300Z,43.58
2019-04-20T17:32:03.262Z,56.98
2019-04-20T17:34:46.830Z,53.45
2019-04-20T17:37:04.706Z,50.20
2019-04-20T17:39:45.533Z,58.05
2019-04-20T17:42:19.979Z,61.58
2019-04-20T17:44:51.878Z,62.88
2019-04-20T17:47:31.372Z,59.33
2019-04-20T17:50:02.097Z,61.95
2019-04-20T17:52:36.400Z,44.73
2019-04-20T17:54:47.581Z,39.60
2019-04-20T17:57:17.397Z,46.48
2019-04-20T17:59:55.349Z,31.12
2019-04-20T18:02:48.368Z,34.53
2019-04-20T18:05:22.960Z,31.97
2019-04-20T18:07:52.216Z,37.63
2019-04-20T18:10:28.940Z,42.62
2019-04-20T18:12:44.849Z,41.00
2019-04-20T18:15:31.266Z,81.50
2019-04-20T18:18:20.248Z,56.70
2019-04-20T18:20:52.594Z,64.37
2019-04-20T18:23:33.422Z,60.85
2019-04-20T18:26:18.525Z,75.65
2019-04-20T18:34:27.143Z,72.10
2019-04-20T18:36:54.590Z,85.70
2019-04-20T18:39:34.658Z,125.90
2019-04-20T18:42:06.502Z,124.87
2019-04-20T18:44:39.122Z,120.13
2019-04-20T18:47:18.647Z,108.17
2019-04-20T18:49:46.615Z,102.45
2019-04-20T18:52:09.332Z,104.25
2019-04-20T18:54:43.779Z,90.03
2019-04-20T18:57:14.247Z,100.00
2019-04-20T18:59:48.839Z,168.72
2019-04-20T19:02:22.612Z,121.02
2019-04-20T19:04:45.903Z,113.05
2019-04-20T19:07:17.504Z,86.97
2019-04-20T19:09:48.485Z,99.35
2019-04-20T19:12:30.110Z,78.62
2019-04-20T19:15:35.049Z,74.65
2019-04-20T19:17:58.990Z,96.53
2019-04-20T19:20:27.522Z,89.62
2019-04-20T19:22:57.900Z,78.47
2019-04-20T19:25:31.576Z,94.77
2019-04-20T19:28:01.348Z,71.85
2019-04-20T19:30:40.701Z,73.28
2019-04-20T19:33:20.522Z,82.40
2019-04-20T19:35:46.574Z,69.58
2019-04-20T19:38:15.656Z,71.70
2019-04-20T19:40:51.191Z,57.20
2019-04-20T19:43:22.156Z,56.83
2019-04-20T19:46:24.365Z,49.58
2019-04-20T19:48:28.283Z,48.23
2019-04-20T19:51:09.758Z,52.62
2019-04-20T19:53:36.581Z,55.33
2019-04-20T19:56:01.213Z,58.33
2019-04-20T19:58:35.930Z,45.60
2019-04-20T20:00:57.313Z,59.93
2019-04-20T20:03:25.950Z,65.15
2019-04-20T20:05:57.648Z,90.72
2019-04-20T20:08:34.829Z,66.17
2019-04-20T20:11:04.862Z,69.95
2019-04-20T20:13:41.939Z,67.10
2019-04-20T20:16:14.257Z,67.12
2019-04-20T20:18:51.012Z,72.72
2019-04-20T20:21:22.577Z,67.32
2019-04-20T20:23:41.797Z,67.80
2019-04-20T20:26:21.340Z,75.35
2019-04-20T20:28:49.478Z,71.87
2019-04-20T20:31:23.527Z,62.50
2019-04-20T20:33:58.967Z,88.80
2019-04-20T20:36:21.976Z,94.62
2019-04-20T20:38:52.503Z,75.17
2019-04-20T20:41:28.215Z,64.47
2019-04-20T20:44:03.100Z,65.87
2019-04-20T20:46:32.750Z,70.00
2019-04-20T20:49:27.247Z,58.13
2019-04-20T20:51:48.504Z,48.90
2019-04-20T20:54:09.213Z,47.25
2019-04-20T20:56:35.608Z,43.55
2019-04-20T20:59:11.473Z,48.13
2019-04-20T21:01:44.343Z,55.92
2019-04-20T21:04:05.296Z,103.55
2019-04-20T21:06:36.983Z,71.70
2019-04-20T21:09:08.146Z,51.15
2019-04-20T21:11:40.193Z,52.50
2019-04-20T21:16:50.922Z,41.18
2019-04-20T21:19:23.468Z,35.17
2019-04-20T21:21:50.472Z,39.85
2019-04-20T21:24:19.737Z,43.92
2019-04-20T21:26:49.702Z,35.10
2019-04-20T21:29:31.736Z,44.45
2019-04-20T21:32:01.222Z,61.98
2019-04-20T21:34:25.553Z,48.30
2019-04-20T21:37:07.044Z,49.50
2019-04-20T21:39:37.141Z,48.23
2019-04-20T21:42:07.578Z,62.62
2019-04-20T21:44:35.608Z,53.17
2019-04-20T21:47:03.279Z,46.02
2019-04-20T21:49:45.963Z,41.70
2019-04-20T21:52:14.903Z,34.73
2019-04-20T21:54:38.241Z,33.33
2019-04-20T21:57:12.479Z,37.20
2019-04-20T21:59:44.614Z,39.63
2019-04-20T22:02:19.477Z,45.80
2019-04-20T22:04:45.175Z,69.27
2019-04-20T22:07:16.547Z,63.80
2019-04-20T22:09:51.618Z,62.15
2019-04-20T22:12:18.284Z,43.80
2019-04-20T22:14:57.883Z,50.00
2019-04-20T22:17:24.575Z,48.40
2019-04-20T22:20:05.676Z,51.30
2019-04-20T22:22:45.476Z,45.20
2019-04-20T22:25:06.294Z,42.83
2019-04-20T22:27:30.078Z,47.90
2019-04-20T22:29:57.539Z,73.87
2019-04-20T22:32:28.113Z,74.42
2019-04-20T22:35:03.216Z,53.42
2019-04-20T22:37:36.923Z,65.60
2019-04-20T22:40:13.842Z,44.50
2019-04-20T22:42:46.580Z,59.58
2019-04-20T22:45:14.194Z,52.75
2019-04-20T22:47:42.741Z,49.23
2019-04-20T22:50:25.507Z,36.88
2019-04-20T22:52:55.568Z,36.42
2019-04-20T22:55:42.638Z,44.27
2019-04-20T22:57:58.548Z,40.63
2019-04-20T23:00:31.215Z,31.93
2019-04-20T23:02:52.263Z,31.90
2019-04-20T23:05:23.123Z,33.15
2019-04-20T23:07:52.937Z,31.45
2019-04-20T23:10:30.465Z,41.30
2019-04-20T23:12:57.831Z,64.82
2019-04-20T23:15:26.052Z,45.90
2019-04-20T23:17:55.965Z,38.35
2019-04-20T23:20:32.194Z,40.08
2019-04-20T23:23:00.783Z,34.30
2019-04-20T23:25:31.748Z,40.67
2019-04-20T23:28:06.436Z,37.80
2019-04-20T23:30:37.469Z,42.53
2019-04-20T23:33:04.593Z,48.83
2019-04-20T23:35:37.496Z,46.13
2019-04-20T23:38:11.014Z,39.13
2019-04-20T23:40:37.528Z,39.08
2019-04-20T23:43:24.539Z,43.40
2019-04-20T23:46:09.243Z,26.23
2019-04-20T23:48:42.712Z,31.90
2019-04-20T23:51:35.110Z,39.33
2019-04-20T23:53:53.907Z,40.10
2019-04-20T23:56:16.987Z,40.50
2019-04-20T23:58:48.267Z,37.25
